Time;durP1;ratioP1;P1;durP2;ratioP2;P2;SDS_P1;SDS_P2;PMS_P1;PMS_P2;Temp;Humidity;BMP_temperature;BMP_pressure;BME280_temperature;BME280_humidity;BME280_pressure;Samples;Min_cycle;Max_cycle;Signal;HPM_P1;HPM_P2
2024/02/18 00:02:12;;;;;;;11.82;4.43;;;;;;;-0.03;93.36;99241.91;4997881;28;20038;-54
2024/02/18 00:04:38;;;;;;;8.50;3.80;;;;;;;0.02;93.49;99242.78;4994537;28;20414;-52
2024/02/18 00:07:05;;;;;;;7.35;4.15;;;;;;;-0.02;93.36;99234.25;5000607;28;20070;-51
2024/02/18 00:09:31;;;;;;;5.80;3.35;;;;;;;0.03;93.07;99235.97;4998921;28;20093;-49
2024/02/18 00:11:58;;;;;;;9.35;3.40;;;;;;;0.05;92.80;99234.28;5001249;28;20528;-53
2024/02/18 00:14:24;;;;;;;8.10;3.50;;;;;;;-0.02;92.83;99229.16;4977738;28;20038;-55
2024/02/18 00:16:51;;;;;;;7.38;2.92;;;;;;;-0.01;92.55;99230.00;5005111;28;20510;-50
2024/02/18 00:19:17;;;;;;;8.15;3.50;;;;;;;-0.04;92.50;99227.44;4991533;28;20049;-48
2024/02/18 00:21:43;;;;;;;8.35;3.55;;;;;;;-0.04;92.98;99230.84;4995926;28;20042;-53
2024/02/18 00:24:09;;;;;;;7.75;3.70;;;;;;;-0.16;93.04;99202.72;4994244;28;20038;-49
2024/02/18 00:26:38;;;;;;;7.97;4.18;;;;;;;-0.03;93.24;99221.47;5001988;28;20048;-48
2024/02/18 00:29:06;;;;;;;7.25;3.30;;;;;;;-0.05;93.08;99202.72;4979746;28;20042;-54
2024/02/18 00:31:32;;;;;;;5.75;2.30;;;;;;;-0.01;92.64;99217.22;4993103;28;20504;-49
2024/02/18 00:33:58;;;;;;;8.00;3.00;;;;;;;-0.02;93.73;99216.38;4980493;28;20513;-54
2024/02/18 00:36:24;;;;;;;8.00;3.72;;;;;;;0.02;93.31;99203.59;4995830;28;20065;-52
2024/02/18 00:38:50;;;;;;;6.07;2.33;;;;;;;0.00;92.93;99203.63;5000735;28;20080;-49
2024/02/18 00:41:16;;;;;;;7.38;3.78;;;;;;;0.00;92.93;99204.44;4998168;28;20042;-50
2024/02/18 00:43:42;;;;;;;5.40;2.47;;;;;;;0.03;92.85;99198.50;4964079;28;20042;-53
2024/02/18 00:46:08;;;;;;;8.20;3.05;;;;;;;0.05;92.93;99199.34;4998006;28;20034;-46
2024/02/18 00:48:35;;;;;;;3.28;1.60;;;;;;;-0.07;93.00;99174.66;4999153;28;20521;-50
2024/02/18 00:51:01;;;;;;;8.07;2.92;;;;;;;0.04;92.72;99194.25;4997337;28;20457;-45
2024/02/18 00:53:27;;;;;;;7.40;3.42;;;;;;;0.05;92.62;99194.25;4996186;28;20588;-50
2024/02/18 00:55:55;;;;;;;5.38;2.08;;;;;;;-0.01;92.41;99184.88;4979235;28;20182;-51
2024/02/18 00:58:21;;;;;;;5.57;2.78;;;;;;;-0.22;92.95;99145.69;5000039;28;20537;-46
2024/02/18 01:00:47;;;;;;;7.25;3.20;;;;;;;-0.02;93.35;99183.16;4988414;28;20053;-52
2024/02/18 01:03:14;;;;;;;6.95;2.72;;;;;;;0.03;93.78;99179.75;4981340;28;20052;-49
2024/02/18 01:05:40;;;;;;;5.05;2.30;;;;;;;-0.30;93.58;99121.84;4973494;28;20045;-50
2024/02/18 01:08:07;;;;;;;6.20;3.28;;;;;;;0.03;93.77;99177.19;4993675;28;20136;-50
2024/02/18 01:10:33;;;;;;;6.82;3.80;;;;;;;0.06;93.91;99170.38;4945476;28;20073;-47
2024/02/18 01:12:59;;;;;;;6.57;2.78;;;;;;;0.14;94.44;99162.72;4994036;28;20097;-50
2024/02/18 01:15:25;;;;;;;8.57;3.33;;;;;;;-0.11;94.40;99111.66;5000290;28;20042;-51
2024/02/18 01:17:51;;;;;;;9.52;3.10;;;;;;;0.07;94.01;99171.22;4993760;28;20047;-48
2024/02/18 01:20:16;;;;;;;6.72;3.33;;;;;;;-0.07;93.93;99146.53;4991599;28;20054;-47
2024/02/18 01:22:42;;;;;;;6.57;2.70;;;;;;;0.06;94.09;99166.97;5012804;28;20042;-46
2024/02/18 01:25:09;;;;;;;7.78;3.13;;;;;;;-0.04;94.07;99135.47;4992083;28;20612;-49
2024/02/18 01:27:34;;;;;;;8.40;3.42;;;;;;;0.03;94.67;99144.84;4992416;28;20049;-48
2024/02/18 01:30:00;;;;;;;7.07;2.90;;;;;;;0.06;94.50;99151.63;4978956;28;20037;-48
2024/02/18 01:32:27;;;;;;;6.97;3.25;;;;;;;0.11;95.16;99147.34;4994735;28;20173;-50
2024/02/18 01:34:54;;;;;;;7.70;3.47;;;;;;;0.18;95.07;99138.84;5000064;28;20133;-52
2024/02/18 01:37:20;;;;;;;6.55;3.03;;;;;;;0.14;94.97;99138.00;4979755;28;20042;-49
2024/02/18 01:39:47;;;;;;;9.30;3.42;;;;;;;0.21;95.00;99146.53;4998862;28;20117;-49
2024/02/18 01:42:12;;;;;;;8.68;3.58;;;;;;;0.22;94.71;99141.38;4994023;28;20050;-48
2024/02/18 01:44:38;;;;;;;3.65;1.80;;;;;;;0.17;95.08;99139.69;4996165;28;20030;-52
2024/02/18 01:47:04;;;;;;;5.07;1.58;;;;;;;0.13;95.27;99140.56;4994268;28;20486;-47
2024/02/18 01:49:32;;;;;;;7.03;2.05;;;;;;;-0.27;95.08;99070.78;4995363;28;20044;-50
2024/02/18 01:51:58;;;;;;;5.68;2.50;;;;;;;-0.04;95.38;99113.31;4993607;28;20046;-48
2024/02/18 01:54:30;;;;;;;6.45;2.65;;;;;;;0.08;95.29;99130.34;4979236;28;20034;-49
2024/02/18 01:56:56;;;;;;;8.93;3.00;;;;;;;0.02;95.43;99132.03;4992989;28;20129;-51
2024/02/18 01:59:22;;;;;;;4.25;2.28;;;;;;;-0.04;95.63;99120.97;4998148;28;20046;-46
2024/02/18 02:01:48;;;;;;;5.65;2.80;;;;;;;-0.15;96.15;99093.75;4997778;28;20492;-47
2024/02/18 02:04:14;;;;;;;5.63;2.60;;;;;;;0.06;96.17;99144.81;4993720;28;20058;-48
2024/02/18 02:06:40;;;;;;;4.75;2.33;;;;;;;-0.11;96.55;99103.97;5009301;28;20052;-48
2024/02/18 02:09:07;;;;;;;6.47;3.20;;;;;;;0.03;96.78;99126.09;4992770;28;20046;-51
2024/02/18 02:11:32;;;;;;;6.47;3.38;;;;;;;0.04;97.25;99121.00;4995804;28;20065;-46
2024/02/18 02:13:59;;;;;;;5.97;2.92;;;;;;;0.05;97.28;99111.63;4987755;28;20395;-47
2024/02/18 02:16:25;;;;;;;6.07;2.80;;;;;;;0.10;97.92;99109.91;5002043;28;20042;-46
2024/02/18 02:18:51;;;;;;;6.13;2.20;;;;;;;0.11;97.59;99117.56;4998784;28;20533;-49
2024/02/18 02:21:17;;;;;;;5.43;2.65;;;;;;;0.14;97.61;99115.00;4999219;28;20037;-50
2024/02/18 02:23:43;;;;;;;7.97;2.92;;;;;;;-0.03;98.10;99076.69;4997321;28;20046;-47
2024/02/18 02:26:13;;;;;;;6.13;2.45;;;;;;;0.21;98.02;99109.00;4981162;28;20125;-48
2024/02/18 02:28:45;;;;;;;6.78;3.05;;;;;;;0.21;98.68;99114.13;5000702;28;20050;-51
2024/02/18 02:31:11;;;;;;;8.02;3.40;;;;;;;0.19;98.27;99107.31;4996848;28;20041;-50
2024/02/18 02:33:37;;;;;;;4.90;2.10;;;;;;;0.18;98.82;99105.63;4998071;28;20048;-50
2024/02/18 02:36:04;;;;;;;3.45;2.15;;;;;;;0.20;99.23;99124.38;5001173;28;20041;-49
2024/02/18 02:38:32;;;;;;;5.40;2.58;;;;;;;0.18;99.17;99109.03;4996922;28;20038;-49
2024/02/18 02:40:58;;;;;;;5.65;2.55;;;;;;;0.21;99.36;99119.22;4996345;28;20552;-49
2024/02/18 02:43:24;;;;;;;5.03;2.72;;;;;;;0.17;99.71;99114.13;4980974;28;20046;-48
2024/02/18 02:45:50;;;;;;;5.25;2.50;;;;;;;0.17;99.69;99112.44;5004578;28;20038;-49
2024/02/18 02:48:15;;;;;;;7.85;1.77;;;;;;;0.22;99.84;99114.97;4996297;28;20045;-48
2024/02/18 02:50:41;;;;;;;6.60;3.08;;;;;;;-0.12;100.00;99051.19;4994625;28;20042;-47
2024/02/18 02:53:07;;;;;;;5.97;3.50;;;;;;;0.27;100.00;99110.69;4997062;28;20070;-53
2024/02/18 02:55:33;;;;;;;6.10;3.03;;;;;;;0.29;100.00;99104.75;4994970;28;20561;-48
2024/02/18 02:57:59;;;;;;;7.40;3.13;;;;;;;0.06;100.00;99069.84;5000116;28;20053;-53
2024/02/18 03:00:25;;;;;;;5.72;2.50;;;;;;;0.28;100.00;99102.19;4981021;28;20049;-52
2024/02/18 03:02:51;;;;;;;7.03;2.17;;;;;;;0.29;100.00;99106.44;4978873;28;20726;-48
2024/02/18 03:05:17;;;;;;;6.53;3.75;;;;;;;0.27;100.00;99096.22;4996314;28;20124;-53
2024/02/18 03:07:43;;;;;;;9.20;3.92;;;;;;;0.10;100.00;99066.47;4999480;28;20536;-50
2024/02/18 03:10:09;;;;;;;5.53;2.92;;;;;;;-0.17;100.00;99031.59;5000995;28;20085;-48
2024/02/18 03:12:35;;;;;;;4.93;2.38;;;;;;;0.29;100.00;99096.22;4999482;28;20061;-47
2024/02/18 03:15:05;;;;;;;8.23;3.50;;;;;;;0.27;100.00;99091.09;5001314;28;20043;-53
2024/02/18 03:17:31;;;;;;;8.38;3.47;;;;;;;0.13;100.00;99066.44;4999151;28;20521;-47
2024/02/18 03:19:58;;;;;;;3.67;2.25;;;;;;;0.38;100.00;99112.38;4996377;28;20144;-50
2024/02/18 03:22:24;;;;;;;7.78;3.10;;;;;;;0.12;100.00;99060.47;5000651;28;20038;-50
2024/02/18 03:24:50;;;;;;;7.80;2.53;;;;;;;-0.03;100.00;99028.16;4970269;28;22394;-46
2024/02/18 03:27:17;;;;;;;8.75;3.33;;;;;;;0.31;100.00;99090.25;4996533;28;20050;-51
2024/02/18 03:29:44;;;;;;;6.43;2.80;;;;;;;0.34;100.00;99080.00;4994530;28;20582;-51
2024/02/18 03:32:11;;;;;;;4.68;2.35;;;;;;;0.36;100.00;99083.44;4994294;28;20037;-51
2024/02/18 03:34:37;;;;;;;4.13;2.25;;;;;;;0.41;100.00;99081.72;5003258;28;20037;-48
2024/02/18 03:37:03;;;;;;;5.32;2.63;;;;;;;0.39;100.00;99088.53;4996582;28;20057;-46
2024/02/18 03:39:29;;;;;;;4.03;2.20;;;;;;;0.43;100.00;99094.47;5000464;28;20077;-49
2024/02/18 03:41:55;;;;;;;7.00;3.08;;;;;;;0.25;100.00;99059.59;4978085;28;20084;-54
2024/02/18 03:44:21;;;;;;;5.25;2.42;;;;;;;0.49;100.00;99109.78;4993842;28;20078;-49
2024/02/18 03:46:47;;;;;;;4.85;2.60;;;;;;;0.23;100.00;99056.19;4995959;28;20077;-51
2024/02/18 03:49:12;;;;;;;6.25;2.55;;;;;;;0.07;100.00;99017.91;5002951;28;20045;-47
2024/02/18 03:51:38;;;;;;;6.70;2.65;;;;;;;0.43;100.00;99084.25;4998935;28;20046;-48
2024/02/18 03:54:04;;;;;;;6.15;2.60;;;;;;;0.48;100.00;99085.06;4996624;28;20037;-47
2024/02/18 03:56:39;;;;;;;5.53;2.45;;;;;;;0.50;100.00;99090.19;4979289;28;20045;-50
2024/02/18 03:59:08;;;;;;;6.93;2.92;;;;;;;0.29;100.00;99050.22;4970354;28;20588;-51
2024/02/18 04:01:34;;;;;;;4.13;2.05;;;;;;;0.55;100.00;99089.31;4995762;28;20057;-49
2024/02/18 04:04:00;;;;;;;5.80;2.83;;;;;;;0.55;100.00;99088.47;4997000;28;20129;-53
2024/02/18 04:06:25;;;;;;;5.57;2.58;;;;;;;0.59;100.00;99085.88;4999259;28;20840;-47
2024/02/18 04:08:51;;;;;;;3.50;2.08;;;;;;;0.67;100.00;99096.09;4995081;28;20046;-51
2024/02/18 04:11:17;;;;;;;4.35;2.40;;;;;;;0.70;100.00;99094.38;4998981;28;20576;-47
2024/02/18 04:13:43;;;;;;;3.42;2.10;;;;;;;0.49;100.00;99065.47;4996475;28;20038;-53
2024/02/18 04:16:09;;;;;;;5.25;2.67;;;;;;;0.68;100.00;99096.06;5002742;28;20425;-49
2024/02/18 04:18:35;;;;;;;5.00;2.35;;;;;;;0.48;100.00;99043.31;5000834;28;20042;-49
2024/02/18 04:21:01;;;;;;;3.38;1.67;;;;;;;0.82;100.00;99103.69;5000556;28;20533;-51
2024/02/18 04:23:27;;;;;;;5.35;2.17;;;;;;;0.89;100.00;99120.69;4999791;28;20045;-52
2024/02/18 04:25:53;;;;;;;7.43;3.15;;;;;;;0.92;100.00;99118.16;4975380;28;20453;-49
2024/02/18 04:28:19;;;;;;;3.08;1.58;;;;;;;0.96;100.00;99112.16;4998408;28;20049;-49
2024/02/18 04:30:45;;;;;;;4.53;2.08;;;;;;;0.78;100.00;99095.19;4989115;28;20582;-49
2024/02/18 04:33:11;;;;;;;3.20;2.35;;;;;;;0.99;100.00;99118.97;4996589;28;20691;-46
2024/02/18 04:35:37;;;;;;;5.03;2.60;;;;;;;1.02;100.00;99117.25;4994216;28;20033;-47
2024/02/18 04:38:03;;;;;;;4.82;1.65;;;;;;;1.05;100.00;99122.31;4994851;28;20518;-53
2024/02/18 04:40:29;;;;;;;5.75;2.25;;;;;;;1.10;100.00;99128.28;4998945;28;20073;-51
2024/02/18 04:42:55;;;;;;;3.58;1.80;;;;;;;0.96;100.00;99101.91;5000051;28;20042;-52
2024/02/18 04:45:21;;;;;;;4.05;2.28;;;;;;;1.16;100.00;99135.06;4960616;28;20038;-47
2024/02/18 04:47:47;;;;;;;2.67;1.85;;;;;;;1.14;100.00;99134.25;4995497;28;20037;-50
2024/02/18 04:50:13;;;;;;;4.07;2.40;;;;;;;0.96;100.00;99107.03;5000310;28;20056;-48
2024/02/18 04:52:40;;;;;;;5.10;2.20;;;;;;;1.24;100.00;99134.19;4998139;28;20052;-50
2024/02/18 04:55:06;;;;;;;6.10;2.78;;;;;;;1.35;100.00;99138.38;4991847;28;20045;-49
2024/02/18 04:57:32;;;;;;;6.88;2.97;;;;;;;1.39;100.00;99145.19;4999525;28;20041;-51
2024/02/18 04:59:58;;;;;;;2.72;1.33;;;;;;;1.47;100.00;99149.38;5000452;28;20509;-51
2024/02/18 05:02:25;;;;;;;5.07;2.00;;;;;;;1.45;100.00;99153.69;4978960;28;20038;-49
2024/02/18 05:04:51;;;;;;;2.83;1.33;;;;;;;1.47;100.00;99153.66;4994412;28;20074;-47
2024/02/18 05:07:17;;;;;;;5.22;2.33;;;;;;;1.45;100.00;99157.97;4994239;28;20572;-51
2024/02/18 05:09:43;;;;;;;3.53;1.88;;;;;;;1.56;100.00;99156.19;4992819;28;20041;-52
2024/02/18 05:12:09;;;;;;;4.20;1.83;;;;;;;1.47;100.00;99146.81;4998939;28;20072;-52
2024/02/18 05:14:35;;;;;;;5.05;2.10;;;;;;;1.31;100.00;99111.94;4999696;28;20507;-50
2024/02/18 05:17:01;;;;;;;5.18;2.42;;;;;;;1.56;100.00;99135.69;5001819;28;20458;-50
2024/02/18 05:19:27;;;;;;;3.38;1.98;;;;;;;1.88;100.00;99171.31;4991305;28;20038;-50
2024/02/18 05:21:53;;;;;;;4.68;2.47;;;;;;;1.91;100.00;99181.53;4961619;28;20046;-50
2024/02/18 05:24:20;;;;;;;3.28;1.88;;;;;;;1.91;100.00;99192.66;4998025;28;20100;-48
2024/02/18 05:26:46;;;;;;;10.25;4.05;;;;;;;1.98;100.00;99181.50;4977367;28;20486;-49
2024/02/18 05:29:12;;;;;;;4.15;2.47;;;;;;;2.11;100.00;99188.22;4994265;28;20046;-49
2024/02/18 05:31:38;;;;;;;4.80;1.90;;;;;;;2.17;100.00;99189.88;4997650;28;20569;-48
2024/02/18 05:34:04;;;;;;;4.25;2.05;;;;;;;1.97;100.00;99148.16;5002611;28;20077;-50
2024/02/18 05:36:30;;;;;;;5.85;1.80;;;;;;;2.21;100.00;99190.69;4972603;28;20070;-47
2024/02/18 05:38:56;;;;;;;3.78;1.88;;;;;;;2.27;100.00;99188.91;4988299;28;20045;-47
2024/02/18 05:41:22;;;;;;;3.42;1.65;;;;;;;2.34;100.00;99190.56;4993155;28;20141;-46
2024/02/18 05:43:48;;;;;;;8.77;3.63;;;;;;;2.40;100.00;99199.94;4988057;28;20133;-49
2024/02/18 05:46:14;;;;;;;8.82;3.65;;;;;;;2.37;100.00;99203.34;4972562;28;20041;-52
2024/02/18 05:48:40;;;;;;;10.02;2.55;;;;;;;2.44;100.00;99201.59;5005655;28;20053;-52
2024/02/18 05:51:07;;;;;;;5.80;2.58;;;;;;;2.53;100.00;99204.91;5006884;28;20399;-49
2024/02/18 05:53:33;;;;;;;3.92;1.88;;;;;;;2.56;100.00;99204.88;4981299;28;20085;-50
2024/02/18 05:56:00;;;;;;;6.28;2.60;;;;;;;2.59;100.00;99210.84;4995537;28;20038;-49
2024/02/18 05:58:26;;;;;;;12.77;5.38;;;;;;;2.64;100.00;99220.22;5002914;28;20038;-49
2024/02/18 06:00:52;;;;;;;5.53;2.28;;;;;;;2.75;100.00;99218.38;5002130;28;20045;-48
2024/02/18 06:03:18;;;;;;;5.78;1.92;;;;;;;2.67;100.00;99197.06;5002173;28;20080;-47
2024/02/18 06:05:45;;;;;;;9.60;2.80;;;;;;;2.79;100.00;99221.75;4984952;28;20065;-49
2024/02/18 06:08:11;;;;;;;7.55;3.15;;;;;;;2.68;100.00;99200.47;5025005;28;20058;-48
2024/02/18 06:10:37;;;;;;;5.40;2.13;;;;;;;2.95;100.00;99236.13;4992569;28;20635;-46
2024/02/18 06:13:03;;;;;;;3.45;1.58;;;;;;;2.96;100.00;99245.53;5010126;28;20517;-49
2024/02/18 06:15:30;;;;;;;6.32;1.92;;;;;;;2.90;100.00;99243.88;5000421;28;20038;-47
2024/02/18 06:17:57;;;;;;;3.75;1.55;;;;;;;2.96;100.00;99248.97;4990335;28;20034;-47
2024/02/18 06:20:25;;;;;;;2.83;1.30;;;;;;;3.01;100.00;99246.34;4988466;28;20034;-47
2024/02/18 06:22:51;;;;;;;5.65;1.60;;;;;;;2.80;100.00;99223.47;4989661;28;20507;-47
2024/02/18 06:25:17;;;;;;;2.33;1.30;;;;;;;2.84;100.00;99230.25;4996271;28;20049;-45
2024/02/18 06:27:43;;;;;;;2.95;1.73;;;;;;;3.13;100.00;99255.63;5009529;28;20053;-49
2024/02/18 06:30:10;;;;;;;3.80;1.80;;;;;;;3.17;100.00;99257.28;4974776;28;20046;-48
2024/02/18 06:32:37;;;;;;;4.75;1.73;;;;;;;3.09;100.00;99264.25;4997214;28;20077;-47
2024/02/18 06:35:03;;;;;;;1.33;0.70;;;;;;;2.95;100.00;99260.09;5004102;28;20049;-46
2024/02/18 06:37:31;;;;;;;5.40;2.40;;;;;;;2.92;100.00;99265.28;4959977;28;20049;-45
2024/02/18 06:39:57;;;;;;;3.03;1.35;;;;;;;3.06;100.00;99264.25;5004353;28;20459;-49
2024/02/18 06:42:23;;;;;;;5.63;2.72;;;;;;;2.98;100.00;99248.97;5002612;28;20042;-44
2024/02/18 06:44:49;;;;;;;8.40;2.80;;;;;;;3.21;100.00;99282.91;4978967;28;20627;-51
2024/02/18 06:47:15;;;;;;;9.13;3.53;;;;;;;3.25;100.00;99271.75;5002093;28;20042;-48
2024/02/18 06:49:41;;;;;;;9.27;3.65;;;;;;;3.29;100.00;99280.28;4978250;28;20042;-47
2024/02/18 06:52:07;;;;;;;4.05;1.90;;;;;;;3.34;100.00;99278.50;5013929;28;20038;-48
2024/02/18 06:54:33;;;;;;;6.30;2.80;;;;;;;3.16;100.00;99250.44;4960942;28;20086;-50
2024/02/18 06:56:59;;;;;;;4.60;1.70;;;;;;;3.40;100.00;99278.44;5005504;28;20506;-50
2024/02/18 06:59:25;;;;;;;3.85;1.38;;;;;;;3.35;100.00;99282.75;4998024;28;20045;-49
2024/02/18 07:01:51;;;;;;;6.85;2.38;;;;;;;3.41;100.00;99304.09;4989728;28;20077;-50
2024/02/18 07:04:17;;;;;;;3.13;1.50;;;;;;;3.24;100.00;99306.03;4988014;28;20052;-47
2024/02/18 07:06:43;;;;;;;1.38;0.55;;;;;;;3.10;100.00;99297.59;4999809;28;20828;-48
2024/02/18 07:09:09;;;;;;;5.63;2.10;;;;;;;3.12;100.00;99300.16;5002068;28;20565;-46
2024/02/18 07:11:35;;;;;;;3.30;1.75;;;;;;;3.27;100.00;99293.13;4999277;28;20208;-46
2024/02/18 07:14:01;;;;;;;0.70;0.50;;;;;;;3.40;100.00;99291.28;4971609;28;20056;-51
2024/02/18 07:16:27;;;;;;;2.03;1.00;;;;;;;3.37;100.00;99302.44;5004785;28;20518;-45
2024/02/18 07:18:53;;;;;;;1.60;0.65;;;;;;;3.35;100.00;99308.44;4990899;28;20418;-47
2024/02/18 07:21:19;;;;;;;0.98;0.50;;;;;;;3.15;100.00;99305.25;5000222;28;20049;-45
2024/02/18 07:23:45;;;;;;;2.95;0.93;;;;;;;2.92;100.00;99315.78;4982848;28;20038;-44
2024/02/18 07:26:11;;;;;;;1.65;0.70;;;;;;;2.71;100.00;99270.63;5000037;28;20537;-47
2024/02/18 07:28:38;;;;;;;0.80;0.68;;;;;;;2.97;100.00;99324.28;4998918;28;20089;-45
2024/02/18 07:31:05;;;;;;;2.85;1.35;;;;;;;2.86;100.00;99324.38;4999749;28;20095;-44
2024/02/18 07:33:31;;;;;;;4.82;1.90;;;;;;;2.68;100.00;99293.72;4960665;28;20507;-46
2024/02/18 07:35:58;;;;;;;4.75;1.17;;;;;;;2.79;100.00;99330.41;4995975;28;20038;-45
2024/02/18 07:38:24;;;;;;;3.30;1.02;;;;;;;2.75;100.00;99318.50;4972944;28;20070;-48
2024/02/18 07:40:50;;;;;;;3.22;1.30;;;;;;;2.93;100.00;99338.84;5000783;28;20386;-48
2024/02/18 07:43:16;;;;;;;1.92;0.90;;;;;;;2.87;100.00;99326.09;4990053;28;20065;-50
2024/02/18 07:45:42;;;;;;;3.65;1.45;;;;;;;2.65;100.00;99311.72;5007096;28;20050;-50
2024/02/18 07:48:09;;;;;;;1.63;0.88;;;;;;;2.76;100.00;99342.44;5004414;28;20046;-50
2024/02/18 07:50:36;;;;;;;3.00;1.10;;;;;;;2.78;100.00;99343.25;4989680;28;20053;-49
2024/02/18 07:53:02;;;;;;;2.97;1.30;;;;;;;2.92;100.00;99359.41;4997316;28;20415;-48
2024/02/18 07:55:31;;;;;;;3.70;1.35;;;;;;;2.81;100.00;99328.69;4970826;28;20037;-49
2024/02/18 07:57:57;;;;;;;3.78;1.80;;;;;;;2.79;100.00;99337.25;4997857;28;20120;-48
2024/02/18 08:00:23;;;;;;;2.88;1.42;;;;;;;2.90;100.00;99363.69;4998445;28;20053;-51
2024/02/18 08:02:49;;;;;;;4.55;2.42;;;;;;;2.94;100.00;99371.34;4974272;28;20415;-52
2024/02/18 08:05:15;;;;;;;2.15;0.90;;;;;;;2.69;100.00;99313.41;4991329;28;20045;-50
2024/02/18 08:07:41;;;;;;;3.45;1.33;;;;;;;2.88;100.00;99332.03;4970898;28;20042;-54
2024/02/18 08:10:07;;;;;;;5.25;1.60;;;;;;;3.26;100.00;99375.34;4978856;28;20052;-51
2024/02/18 08:12:32;;;;;;;3.10;1.38;;;;;;;3.14;100.00;99358.31;4994726;28;20038;-50
2024/02/18 08:14:58;;;;;;;4.60;1.83;;;;;;;3.34;100.00;99381.28;4997687;28;20710;-52
2024/02/18 08:17:24;;;;;;;2.40;1.20;;;;;;;3.28;100.00;99389.88;4981163;28;20049;-47
2024/02/18 08:19:50;;;;;;;2.20;1.20;;;;;;;3.39;100.00;99387.22;4999293;28;20045;-52
2024/02/18 08:22:17;;;;;;;1.83;0.90;;;;;;;3.32;100.00;99372.72;4985927;28;20108;-53
2024/02/18 08:24:43;;;;;;;3.03;1.20;;;;;;;3.56;100.00;99408.44;4998147;28;20053;-52
2024/02/18 08:27:09;;;;;;;2.67;1.52;;;;;;;3.57;100.00;99402.41;4992029;28;20049;-52
2024/02/18 08:29:38;;;;;;;2.70;1.20;;;;;;;3.63;100.00;99410.06;4992122;28;20582;-53
2024/02/18 08:32:06;;;;;;;3.88;1.48;;;;;;;3.55;100.00;99424.72;4996799;28;20053;-41
2024/02/18 08:34:32;;;;;;;2.08;1.20;;;;;;;3.57;100.00;99427.28;4994746;28;20050;-41
2024/02/18 08:36:58;;;;;;;2.38;1.23;;;;;;;3.60;100.00;99415.25;4979137;28;20045;-51
2024/02/18 08:39:24;;;;;;;2.40;1.02;;;;;;;3.79;100.00;99426.19;4997901;28;20046;-46
2024/02/18 08:41:50;;;;;;;2.22;1.20;;;;;;;4.08;100.00;99418.94;4997983;28;20118;-51
2024/02/18 08:44:17;;;;;;;1.70;1.02;;;;;;;4.49;100.00;99413.28;5001034;28;20049;-48
2024/02/18 08:46:45;;;;;;;2.45;1.50;;;;;;;4.85;100.00;99417.03;4997487;28;20076;-46
2024/02/18 08:49:11;;;;;;;3.75;0.90;;;;;;;5.28;100.00;99427.50;4993429;28;20157;-47
2024/02/18 08:51:39;;;;;;;1.60;0.70;;;;;;;5.67;100.00;99420.75;5002992;28;20789;-52
2024/02/18 08:54:06;;;;;;;2.67;0.98;;;;;;;6.05;100.00;99427.78;4997962;28;20049;-51
2024/02/18 08:56:31;;;;;;;2.08;1.02;;;;;;;6.48;99.73;99424.31;4992446;28;20038;-53
2024/02/18 08:58:58;;;;;;;1.83;0.93;;;;;;;6.69;98.28;99418.66;4996027;28;20041;-47
2024/02/18 09:01:23;;;;;;;2.22;1.13;;;;;;;6.87;95.87;99423.38;4999675;28;20136;-51
2024/02/18 09:03:49;;;;;;;1.60;1.00;;;;;;;6.93;94.76;99425.81;4994771;28;20041;-52
2024/02/18 09:06:15;;;;;;;1.92;1.10;;;;;;;6.62;94.03;99363.69;4998352;28;20061;-51
2024/02/18 09:08:44;;;;;;;2.97;0.70;;;;;;;6.89;92.73;99410.44;4987666;28;20474;-53
2024/02/18 09:11:10;;;;;;;0.50;0.50;;;;;;;6.96;91.75;99430.09;4990689;28;20042;-51
2024/02/18 09:13:36;;;;;;;2.88;0.88;;;;;;;6.97;91.06;99431.75;4996315;28;20549;-52
2024/02/18 09:16:02;;;;;;;1.65;0.73;;;;;;;6.68;87.21;99424.69;4993416;28;20076;-50
2024/02/18 09:18:28;;;;;;;1.98;0.73;;;;;;;6.45;87.38;99430.38;4992455;28;20038;-52
2024/02/18 09:20:55;;;;;;;6.45;0.98;;;;;;;6.46;90.23;99426.06;4993903;28;20074;-52
2024/02/18 09:23:20;;;;;;;1.10;0.63;;;;;;;6.52;90.77;99431.94;4999434;28;20045;-54
2024/02/18 09:25:47;;;;;;;2.20;1.00;;;;;;;6.39;89.15;99431.34;4995764;28;20137;-48
2024/02/18 09:28:15;;;;;;;3.58;1.08;;;;;;;6.20;88.50;99431.78;4987126;28;20049;-52
2024/02/18 09:30:41;;;;;;;2.25;0.90;;;;;;;5.84;85.96;99413.56;4991597;28;20101;-51
2024/02/18 09:33:07;;;;;;;3.58;0.80;;;;;;;5.77;83.29;99440.31;5008908;28;20037;-53
2024/02/18 09:35:34;;;;;;;1.08;0.73;;;;;;;5.70;85.17;99410.41;4977314;28;20580;-55
2024/02/18 09:38:00;;;;;;;1.75;1.00;;;;;;;6.31;88.24;99437.56;4981059;28;20042;-52
2024/02/18 09:40:26;;;;;;;3.42;1.13;;;;;;;6.79;88.44;99441.66;4997994;28;20045;-52
2024/02/18 09:42:53;;;;;;;1.35;1.08;;;;;;;7.13;87.88;99449.47;4999158;28;20057;-54
2024/02/18 09:45:32;;;;;;;1.70;0.52;;;;;;;6.91;87.63;99425.00;5005275;28;20425;-52
2024/02/18 09:48:00;;;;;;;1.10;0.70;;;;;;;6.83;86.19;99442.44;5001914;28;20437;-52
2024/02/18 09:50:30;;;;;;;1.85;0.60;;;;;;;6.59;86.31;99453.34;4973699;28;20038;-54
2024/02/18 09:52:55;;;;;;;1.48;0.70;;;;;;;6.52;87.09;99444.84;4990180;28;20426;-53
2024/02/18 09:55:22;;;;;;;2.55;1.00;;;;;;;6.54;88.42;99457.75;4988633;28;20038;-52
2024/02/18 09:57:47;;;;;;;1.73;0.98;;;;;;;6.10;87.70;99413.06;5003924;28;20167;-56
2024/02/18 10:00:14;;;;;;;2.10;0.90;;;;;;;6.09;88.74;99468.13;4999981;28;20056;-53
2024/02/18 10:02:41;;;;;;;3.00;1.40;;;;;;;5.72;87.34;99467.94;5008476;28;20180;-51
2024/02/18 10:05:08;;;;;;;1.83;0.90;;;;;;;5.50;88.09;99482.06;5008329;28;20141;-53
2024/02/18 10:07:35;;;;;;;1.33;0.80;;;;;;;5.35;88.73;99480.63;5008599;28;20588;-48
2024/02/18 10:10:04;;;;;;;1.65;0.85;;;;;;;5.26;88.73;99474.78;5007223;28;20042;-51
2024/02/18 10:12:31;;;;;;;;;;;;;;;5.10;89.19;99487.03;5008565;28;20034;-53
2024/02/18 10:14:58;;;;;;;1.17;0.70;;;;;;;4.71;90.18;99474.78;4990585;28;19925;-49
2024/02/18 10:17:26;;;;;;;1.45;0.95;;;;;;;4.40;90.49;99458.84;4972684;28;20046;-50
2024/02/18 10:19:52;;;;;;;2.53;0.80;;;;;;;4.58;92.33;99504.97;5003031;28;20045;-54
2024/02/18 10:22:21;;;;;;;1.85;0.80;;;;;;;4.65;93.84;99499.72;4989476;28;20046;-51
2024/02/18 10:24:47;;;;;;;1.20;0.73;;;;;;;4.80;94.28;99505.53;4989910;28;20058;-52
2024/02/18 10:27:15;;;;;;;4.45;0.70;;;;;;;4.34;89.18;99515.59;4956405;28;20066;-49
2024/02/18 10:29:41;;;;;;;0.93;0.60;;;;;;;4.17;90.58;99510.63;4966111;28;20064;-51
2024/02/18 10:32:07;;;;;;;2.63;0.68;;;;;;;4.16;92.94;99512.34;5002372;28;20404;-51
2024/02/18 10:34:33;;;;;;;1.40;0.73;;;;;;;4.13;94.63;99514.09;5006435;28;20076;-51
2024/02/18 10:37:08;;;;;;;1.95;1.00;;;;;;;4.01;95.66;99514.22;5009026;28;20046;-49
2024/02/18 10:39:34;;;;;;;1.02;0.70;;;;;;;4.03;97.28;99522.78;5008813;28;20042;-48
2024/02/18 10:42:06;;;;;;;1.90;0.88;;;;;;;4.23;99.28;99515.72;5007701;28;20126;-51
2024/02/18 10:44:36;;;;;;;1.05;0.70;;;;;;;4.39;100.00;99514.66;5007486;28;20132;-52
2024/02/18 10:47:06;;;;;;;2.55;0.70;;;;;;;4.37;99.90;99512.97;5004559;28;20058;-49
2024/02/18 10:49:35;;;;;;;2.67;1.00;;;;;;;4.31;100.00;99526.75;4998105;28;20104;-50
2024/02/18 10:52:38;;;;;;;6.32;1.17;;;;;;;4.14;100.00;99524.38;5007825;28;20073;-55
2024/02/18 10:55:19;;;;;;;3.78;1.00;;;;;;;3.98;100.00;99519.41;5008894;28;20068;-51
2024/02/18 10:57:55;;;;;;;1.98;1.02;;;;;;;3.95;100.00;99525.44;5007664;28;20465;-51
2024/02/18 11:00:25;;;;;;;3.25;1.27;;;;;;;3.96;100.00;99529.72;5000020;28;20082;-51
2024/02/18 11:03:22;;;;;;;2.35;0.80;;;;;;;4.04;100.00;99529.63;4989676;28;20525;-50
2024/02/18 11:05:50;;;;;;;1.65;0.75;;;;;;;4.11;100.00;99528.69;4990443;28;20041;-51
2024/02/18 11:08:19;;;;;;;3.53;0.90;;;;;;;3.87;100.00;99504.09;4991065;28;20049;-51
2024/02/18 11:10:45;;;;;;;2.90;0.98;;;;;;;4.14;100.00;99524.38;5007971;28;20514;-55
2024/02/18 11:13:13;;;;;;;1.38;0.70;;;;;;;4.01;99.24;99534.81;5007273;28;20038;-52
2024/02/18 11:15:39;;;;;;;1.17;0.70;;;;;;;3.99;98.43;99531.38;5007090;28;20068;-53
2024/02/18 11:18:05;;;;;;;1.35;0.85;;;;;;;3.87;96.16;99526.38;5007885;28;20046;-50
2024/02/18 11:20:32;;;;;;;6.10;0.80;;;;;;;3.75;93.81;99499.94;5006761;28;20068;-49
2024/02/18 11:22:58;;;;;;;2.63;0.70;;;;;;;4.11;94.02;99544.13;4971397;28;20392;-55
2024/02/18 11:25:25;;;;;;;1.10;0.70;;;;;;;4.48;94.35;99542.84;4988733;28;20074;-52
2024/02/18 11:27:51;;;;;;;1.55;0.60;;;;;;;4.54;92.42;99547.94;4987250;28;20046;-53
2024/02/18 11:30:17;;;;;;;1.13;0.70;;;;;;;4.40;88.10;99549.78;4978513;28;20069;-49
2024/02/18 11:32:44;;;;;;;0.88;0.60;;;;;;;4.37;87.91;99536.97;4974186;28;20662;-49
2024/02/18 11:35:11;;;;;;;1.30;0.60;;;;;;;4.40;87.70;99541.22;4989761;28;20045;-51